createdAt,value
2019-01-05T00:00:59.005Z,102631.69
2019-01-05T00:02:18.812Z,102632.61
2019-01-05T00:03:52.603Z,102630.65
2019-01-05T00:05:21.293Z,102629.33
2019-01-05T00:07:02.349Z,102627.25
2019-01-05T00:08:39.691Z,102632.30
2019-01-05T00:10:04.268Z,102636.59
2019-01-05T00:11:29.123Z,102631.88
2019-01-05T00:12:53.345Z,102626.40
2019-01-05T00:14:18.414Z,102633.27
2019-01-05T00:15:46.214Z,102625.36
2019-01-05T00:17:20.578Z,102623.66
2019-01-05T00:18:50.103Z,102619.69
2019-01-05T00:20:15.353Z,102620.95
2019-01-05T00:22:00.571Z,102626.55
2019-01-05T00:23:32.077Z,102615.52
2019-01-05T00:24:55.728Z,102614.78
2019-01-05T00:26:20.207Z,102608.27
2019-01-05T00:27:44.733Z,102604.48
2019-01-05T00:29:05.961Z,102612.09
2019-01-05T00:30:34.300Z,102605.05
2019-01-05T00:32:37.464Z,102611.46
2019-01-05T00:34:15.175Z,102602.82
2019-01-05T00:36:11.112Z,102614.67
2019-01-05T00:37:40.375Z,102606.25
2019-01-05T00:39:25.171Z,102604.13
2019-01-05T00:40:57.149Z,102601.97
2019-01-05T00:42:42.780Z,102604.67
2019-01-05T00:44:08.640Z,102599.88
2019-01-05T00:45:52.470Z,102595.17
2019-01-05T00:47:20.771Z,102597.38
2019-01-05T00:48:50.663Z,102596.03
2019-01-05T00:50:17.231Z,102595.14
2019-01-05T00:51:46.395Z,102592.24
2019-01-05T00:53:11.607Z,102584.98
2019-01-05T00:54:37.630Z,102597.80
2019-01-05T00:56:03.878Z,102585.56
2019-01-05T00:57:32.086Z,102584.28
2019-01-05T00:59:04.084Z,102585.59
2019-01-05T01:00:28.688Z,102582.77
2019-01-05T01:01:56.578Z,102577.64
2019-01-05T01:03:34.740Z,102580.57
2019-01-05T01:04:58.809Z,102579.34
2019-01-05T01:06:23.084Z,102575.05
2019-01-05T01:07:47.867Z,102579.23
2019-01-05T01:09:08.638Z,102577.99
2019-01-05T01:10:37.357Z,102569.89
2019-01-05T01:12:12.239Z,102566.09
2019-01-05T01:13:47.034Z,102570.06
2019-01-05T01:15:12.296Z,102564.12
2019-01-05T01:16:41.859Z,102559.45
2019-01-05T01:18:06.255Z,102562.91
2019-01-05T01:19:32.846Z,102565.07
2019-01-05T01:20:57.700Z,102565.56
2019-01-05T01:22:24.361Z,102562.69
2019-01-05T01:23:49.235Z,102566.84
2019-01-05T01:25:33.468Z,102564.78
2019-01-05T01:26:59.823Z,102568.28
2019-01-05T01:28:27.066Z,102570.77
2019-01-05T01:30:08.464Z,102568.67
2019-01-05T01:31:29.052Z,102558.45
2019-01-05T01:33:07.114Z,102563.13
2019-01-05T01:34:44.793Z,102555.47
2019-01-05T01:36:09.956Z,102553.31
2019-01-05T01:37:34.610Z,102549.92
2019-01-05T01:39:40.515Z,102537.96
2019-01-05T01:41:09.603Z,102542.20
2019-01-05T01:42:44.329Z,102535.37
2019-01-05T01:44:11.420Z,102520.97
2019-01-05T01:45:40.399Z,102527.77
2019-01-05T01:47:06.782Z,102532.18
2019-01-05T01:48:33.157Z,102535.16
2019-01-05T01:50:00.270Z,102528.42
2019-01-05T01:51:42.879Z,102530.16
2019-01-05T01:53:09.439Z,102531.76
2019-01-05T01:54:35.885Z,102524.99
2019-01-05T01:56:07.866Z,102523.78
2019-01-05T01:57:35.287Z,102521.20
2019-01-05T01:59:10.277Z,102528.58
2019-01-05T02:00:27.778Z,102520.09
2019-01-05T02:02:00.829Z,102519.72
2019-01-05T02:03:38.855Z,102521.00
2019-01-05T02:05:11.585Z,102515.45
2019-01-05T02:06:39.802Z,102517.59
2019-01-05T02:08:13.709Z,102518.88
2019-01-05T02:09:40.468Z,102508.67
2019-01-05T02:11:23.616Z,102515.08
2019-01-05T02:12:51.622Z,102512.63
2019-01-05T02:14:19.637Z,102508.77
2019-01-05T02:15:54.245Z,102506.67
2019-01-05T02:17:47.615Z,102505.88
2019-01-05T02:19:44.267Z,102499.51
2019-01-05T02:21:58.707Z,102496.66
2019-01-05T02:24:35.665Z,102500.94
2019-01-05T02:26:37.076Z,102496.20
2019-01-05T02:28:55.894Z,102493.28
2019-01-05T02:31:51.170Z,102492.52
2019-01-05T02:34:34.921Z,102491.25
2019-01-05T02:37:16.351Z,102494.22
2019-01-05T02:39:52.714Z,102498.93
2019-01-05T02:42:31.814Z,102498.50
2019-01-05T02:44:47.561Z,102492.18
2019-01-05T02:47:25.535Z,102493.97
2019-01-05T02:49:44.432Z,102479.52
2019-01-05T02:52:04.217Z,102482.86
2019-01-05T02:54:51.338Z,102481.74
2019-01-05T02:57:06.137Z,102483.87
2019-01-05T02:59:34.355Z,102479.17
2019-01-05T03:02:07.805Z,102476.65
2019-01-05T03:04:48.360Z,102477.55
2019-01-05T03:07:15.504Z,102477.13
2019-01-05T03:09:46.187Z,102469.42
2019-01-05T03:12:20.016Z,102465.59
2019-01-05T03:15:04.466Z,102459.70
2019-01-05T03:17:34.712Z,102466.50
2019-01-05T03:19:31.410Z,102459.22
2019-01-05T03:22:02.149Z,102452.09
2019-01-05T03:24:36.957Z,102448.27
2019-01-05T03:27:12.062Z,102436.36
2019-01-05T03:29:32.421Z,102445.30
2019-01-05T03:32:08.917Z,102435.09
2019-01-05T03:34:24.776Z,102431.66
2019-01-05T03:36:41.100Z,102427.03
2019-01-05T03:39:10.108Z,102429.19
2019-01-05T03:41:31.629Z,102433.44
2019-01-05T03:44:01.058Z,102412.13
2019-01-05T03:46:31.808Z,102416.80
2019-01-05T03:48:41.804Z,102413.83
2019-01-05T03:51:17.211Z,102412.13
2019-01-05T03:53:35.454Z,102399.44
2019-01-05T03:56:02.092Z,102395.64
2019-01-05T03:58:16.476Z,102386.69
2019-01-05T04:00:20.836Z,102395.55
2019-01-05T04:02:58.980Z,102394.64
2019-01-05T04:05:17.150Z,102390.46
2019-01-05T04:08:02.959Z,102393.00
2019-01-05T04:10:41.315Z,102390.81
2019-01-05T04:13:00.434Z,102395.91
2019-01-05T04:15:37.135Z,102392.47
2019-01-05T04:17:56.536Z,102381.81
2019-01-05T04:20:31.305Z,102378.06
2019-01-05T04:23:07.682Z,102372.06
2019-01-05T04:25:18.655Z,102372.51
2019-01-05T04:27:22.842Z,102375.48
2019-01-05T04:29:59.373Z,102377.14
2019-01-05T04:32:30.494Z,102378.86
2019-01-05T04:34:56.308Z,102381.91
2019-01-05T04:37:18.983Z,102377.94
2019-01-05T04:40:09.658Z,102379.31
2019-01-05T04:42:33.103Z,102378.45
2019-01-05T04:44:43.726Z,102384.39
2019-01-05T04:47:17.489Z,102382.64
2019-01-05T04:49:59.609Z,102382.27
2019-01-05T04:52:10.573Z,102379.31
2019-01-05T04:54:44.307Z,102382.28
2019-01-05T04:57:25.782Z,102375.89
2019-01-05T04:59:50.927Z,102377.98
2019-01-05T05:02:10.972Z,102371.61
2019-01-05T05:04:19.147Z,102368.98
2019-01-05T05:06:29.816Z,102368.61
2019-01-05T05:08:37.421Z,102374.14
2019-01-05T05:11:13.217Z,102368.22
2019-01-05T05:13:45.807Z,102373.31
2019-01-05T05:16:04.073Z,102372.42
2019-01-05T05:18:29.211Z,102374.59
2019-01-05T05:20:52.323Z,102362.63
2019-01-05T05:23:27.999Z,102372.80
2019-01-05T05:26:13.420Z,102360.09
2019-01-05T05:29:15.611Z,102360.52
2019-01-05T05:31:42.627Z,102361.31
2019-01-05T05:34:03.510Z,102351.11
2019-01-05T05:36:29.498Z,102348.54
2019-01-05T05:38:58.110Z,102353.69
2019-01-05T05:41:46.251Z,102358.77
2019-01-05T05:43:59.917Z,102357.02
2019-01-05T05:46:25.518Z,102360.02
2019-01-05T05:48:57.072Z,102358.77
2019-01-05T05:51:32.710Z,102363.87
2019-01-05T05:54:24.457Z,102362.59
2019-01-05T05:57:11.361Z,102361.69
2019-01-05T05:59:47.627Z,102354.09
2019-01-05T06:02:35.837Z,102360.44
2019-01-05T06:05:11.135Z,102362.11
2019-01-05T06:07:45.856Z,102363.03
2019-01-05T06:10:07.987Z,102359.16
2019-01-05T06:12:18.479Z,102359.64
2019-01-05T06:14:38.695Z,102371.94
2019-01-05T06:16:44.829Z,102369.39
2019-01-05T06:19:10.072Z,102363.06
2019-01-05T06:21:37.743Z,102366.81
2019-01-05T06:24:10.542Z,102372.77
2019-01-05T06:26:42.287Z,102377.94
2019-01-05T06:29:11.668Z,102372.39
2019-01-05T06:31:42.749Z,102375.81
2019-01-05T06:34:15.701Z,102370.73
2019-01-05T06:36:59.017Z,102369.89
2019-01-05T06:39:31.596Z,102383.52
2019-01-05T06:42:07.554Z,102372.44
2019-01-05T06:44:48.601Z,102371.98
2019-01-05T06:47:26.249Z,102378.82
2019-01-05T06:49:58.952Z,102383.09
2019-01-05T06:52:46.230Z,102370.72
2019-01-05T06:55:19.577Z,102380.97
2019-01-05T06:58:24.478Z,102378.39
2019-01-05T07:00:59.904Z,102381.38
2019-01-05T07:03:30.913Z,102386.94
2019-01-05T07:05:54.382Z,102390.80
2019-01-05T07:08:31.101Z,102393.24
2019-01-05T07:11:20.855Z,102383.92
2019-01-05T07:14:13.945Z,102391.09
2019-01-05T07:16:46.637Z,102395.38
2019-01-05T07:19:18.755Z,102391.95
2019-01-05T07:21:42.574Z,102397.89
2019-01-05T07:24:33.816Z,102394.07
2019-01-05T07:27:10.135Z,102400.05
2019-01-05T07:29:38.299Z,102397.97
2019-01-05T07:32:11.523Z,102401.38
2019-01-05T07:34:35.401Z,102400.10
2019-01-05T07:37:10.924Z,102408.14
2019-01-05T07:39:42.427Z,102421.30
2019-01-05T07:42:42.137Z,102421.78
2019-01-05T07:45:15.462Z,102412.00
2019-01-05T07:47:51.959Z,102415.41
2019-01-05T07:50:36.695Z,102417.55
2019-01-05T07:53:20.846Z,102415.85
2019-01-05T07:55:39.769Z,102429.48
2019-01-05T07:58:13.512Z,102420.16
2019-01-05T08:00:33.727Z,102430.37
2019-01-05T08:03:12.215Z,102434.20
2019-01-05T08:05:59.949Z,102432.93
2019-01-05T08:08:50.838Z,102440.19
2019-01-05T08:11:03.115Z,102447.02
2019-01-05T08:13:32.543Z,102447.45
2019-01-05T08:15:49.974Z,102445.73
2019-01-05T08:18:15.658Z,102445.28
2019-01-05T08:20:50.340Z,102440.19
2019-01-05T08:23:19.316Z,102446.17
2019-01-05T08:25:47.554Z,102439.77
2019-01-05T08:28:43.606Z,102446.03
2019-01-05T08:31:08.985Z,102441.41
2019-01-05T08:33:49.471Z,102445.64
2019-01-05T08:36:08.451Z,102441.39
2019-01-05T08:38:32.801Z,102441.84
2019-01-05T08:40:59.448Z,102445.27
2019-01-05T08:43:31.246Z,102441.30
2019-01-05T08:45:59.864Z,102448.58
2019-01-05T08:48:18.675Z,102445.67
2019-01-05T08:50:42.024Z,102447.79
2019-01-05T08:53:14.581Z,102443.53
2019-01-05T08:55:33.452Z,102447.42
2019-01-05T08:58:25.596Z,102456.72
2019-01-05T09:00:44.117Z,102448.98
2019-01-05T09:03:13.089Z,102456.21
2019-01-05T09:05:41.288Z,102453.69
2019-01-05T09:08:09.650Z,102460.57
2019-01-05T09:10:40.830Z,102452.92
2019-01-05T09:13:19.093Z,102453.74
2019-01-05T09:15:52.240Z,102452.49
2019-01-05T09:18:33.946Z,102451.19
2019-01-05T09:20:50.652Z,102449.12
2019-01-05T09:23:36.459Z,102458.00
2019-01-05T09:26:09.438Z,102454.59
2019-01-05T09:28:26.668Z,102458.42
2019-01-05T09:31:06.750Z,102460.97
2019-01-05T09:33:20.888Z,102460.14
2019-01-05T09:35:41.645Z,102460.59
2019-01-05T09:38:07.656Z,102462.72
2019-01-05T09:40:49.986Z,102464.42
2019-01-05T09:43:20.843Z,102469.47
2019-01-05T09:46:01.826Z,102463.52
2019-01-05T09:48:17.818Z,102462.67
2019-01-05T09:50:58.103Z,102462.77
2019-01-05T09:53:13.796Z,102466.12
2019-01-05T09:55:31.064Z,102457.67
2019-01-05T09:58:01.362Z,102456.90
2019-01-05T10:00:48.492Z,102464.50
2019-01-05T10:03:08.939Z,102473.05
2019-01-05T10:05:30.877Z,102466.68
2019-01-05T10:07:45.970Z,102467.65
2019-01-05T10:10:36.503Z,102466.40
2019-01-05T10:13:14.724Z,102463.03
2019-01-05T10:15:38.145Z,102462.48
2019-01-05T10:18:02.548Z,102453.45
2019-01-05T10:20:39.516Z,102461.20
2019-01-05T10:23:19.457Z,102457.00
2019-01-05T10:25:57.330Z,102457.95
2019-01-05T10:27:56.252Z,102457.84
2019-01-05T10:30:19.585Z,102457.42
2019-01-05T10:32:47.158Z,102457.47
2019-01-05T10:35:08.947Z,102460.48
2019-01-05T10:38:04.127Z,102447.59
2019-01-05T10:40:54.206Z,102453.67
2019-01-05T10:43:24.529Z,102452.37
2019-01-05T10:45:47.157Z,102450.16
2019-01-05T10:48:00.126Z,102435.36
2019-01-05T10:50:45.568Z,102436.18
2019-01-05T10:53:13.443Z,102442.20
2019-01-05T10:55:33.058Z,102444.73
2019-01-05T10:58:10.789Z,102443.48
2019-01-05T11:01:05.241Z,102435.02
2019-01-05T11:03:24.455Z,102441.08
2019-01-05T11:05:50.013Z,102429.52
2019-01-05T11:07:57.969Z,102427.05
2019-01-05T11:10:24.274Z,102420.98
2019-01-05T11:12:54.235Z,102419.78
2019-01-05T11:15:23.557Z,102415.95
2019-01-05T11:18:01.550Z,102415.16
2019-01-05T11:20:17.599Z,102415.48
2019-01-05T11:22:35.078Z,102418.44
2019-01-05T11:25:12.523Z,102421.45
2019-01-05T11:27:33.695Z,102416.73
2019-01-05T11:30:09.371Z,102426.21
2019-01-05T11:32:23.399Z,102415.03
2019-01-05T11:34:46.688Z,102414.67
2019-01-05T11:37:17.345Z,102416.84
2019-01-05T11:39:48.603Z,102416.43
2019-01-05T11:42:23.191Z,102417.70
2019-01-05T11:44:32.692Z,102420.66
2019-01-05T11:47:06.486Z,102420.28
2019-01-05T11:49:43.013Z,102413.08
2019-01-05T11:52:01.255Z,102419.39
2019-01-05T11:54:16.157Z,102413.03
2019-01-05T11:56:39.648Z,102413.76
2019-01-05T11:58:51.793Z,102414.23
2019-01-05T12:01:38.139Z,102418.91
2019-01-05T12:03:58.772Z,102408.69
2019-01-05T12:06:41.087Z,102404.52
2019-01-05T12:09:08.975Z,102401.52
2019-01-05T12:11:36.248Z,102405.30
2019-01-05T12:13:57.404Z,102399.86
2019-01-05T12:16:21.389Z,102403.64
2019-01-05T12:18:49.313Z,102401.98
2019-01-05T12:21:02.969Z,102408.37
2019-01-05T12:23:44.865Z,102405.44
2019-01-05T12:26:28.709Z,102408.37
2019-01-05T12:28:58.877Z,102405.34
2019-01-05T12:31:45.229Z,102406.27
2019-01-05T12:34:23.292Z,102401.58
2019-01-05T12:36:55.559Z,102393.13
2019-01-05T12:39:51.943Z,102392.19
2019-01-05T12:42:14.372Z,102397.61
2019-01-05T12:44:27.982Z,102393.36
2019-01-05T12:47:23.712Z,102384.52
2019-01-05T12:49:34.302Z,102388.38
2019-01-05T12:52:22.814Z,102394.31
2019-01-05T12:54:58.192Z,102387.55
2019-01-05T12:57:19.007Z,102388.84
2019-01-05T12:59:33.675Z,102383.30
2019-01-05T13:02:15.864Z,102388.83
2019-01-05T13:04:45.388Z,102385.84
2019-01-05T13:07:40.075Z,102389.20
2019-01-05T13:09:52.516Z,102389.21
2019-01-05T13:12:05.983Z,102394.80
2019-01-05T13:14:58.543Z,102394.44
2019-01-05T13:17:11.442Z,102397.38
2019-01-05T13:19:47.018Z,102397.36
2019-01-05T13:22:38.456Z,102404.98
2019-01-05T13:25:36.131Z,102407.97
2019-01-05T13:28:09.696Z,102408.75
2019-01-05T13:31:19.037Z,102411.30
2019-01-05T13:34:00.391Z,102408.77
2019-01-05T13:36:14.784Z,102407.95
2019-01-05T13:38:40.625Z,102413.57
2019-01-05T13:41:26.277Z,102408.34
2019-01-05T13:43:34.144Z,102416.05
2019-01-05T13:46:36.074Z,102411.73
2019-01-05T13:49:04.184Z,102413.47
2019-01-05T13:51:41.122Z,102418.19
2019-01-05T13:53:26.319Z,102421.58
2019-01-05T13:54:53.042Z,102421.16
2019-01-05T13:57:01.287Z,102423.30
2019-01-05T13:58:20.815Z,102417.77
2019-01-05T13:59:49.687Z,102421.58
2019-01-05T14:01:30.622Z,102418.98
2019-01-05T14:03:08.515Z,102416.08
2019-01-05T14:04:28.838Z,102422.41
2019-01-05T14:05:53.643Z,102421.62
2019-01-05T14:07:18.512Z,102420.41
2019-01-05T14:08:51.096Z,102424.55
2019-01-05T14:10:29.439Z,102422.89
2019-01-05T14:12:01.874Z,102420.28
2019-01-05T14:13:27.006Z,102420.33
2019-01-05T14:15:04.271Z,102428.77
2019-01-05T14:16:42.067Z,102428.79
2019-01-05T14:18:20.008Z,102430.54
2019-01-05T14:19:45.613Z,102431.41
2019-01-05T14:21:23.751Z,102440.77
2019-01-05T14:22:48.131Z,102432.69
2019-01-05T14:24:19.615Z,102433.13
2019-01-05T14:25:45.488Z,102442.11
2019-01-05T14:27:14.561Z,102439.11
2019-01-05T14:28:39.053Z,102436.17
2019-01-05T14:30:03.496Z,102445.09
2019-01-05T14:31:35.603Z,102439.52
2019-01-05T14:33:00.280Z,102441.27
2019-01-05T14:34:25.409Z,102439.11
2019-01-05T14:36:03.102Z,102440.37
2019-01-05T14:37:32.482Z,102439.83
2019-01-05T14:39:10.424Z,102436.85
2019-01-05T14:40:29.940Z,102445.76
2019-01-05T14:41:51.600Z,102440.68
2019-01-05T14:43:16.051Z,102441.98
2019-01-05T14:44:37.919Z,102444.11
2019-01-05T14:46:00.195Z,102441.16
2019-01-05T14:47:24.470Z,102446.77
2019-01-05T14:48:48.938Z,102441.64
2019-01-05T14:50:32.921Z,102441.62
2019-01-05T14:52:04.515Z,102438.19
2019-01-05T14:53:36.552Z,102440.28
2019-01-05T14:55:05.866Z,102437.73
2019-01-05T14:56:50.713Z,102436.45
2019-01-05T14:58:14.741Z,102429.66
2019-01-05T14:59:49.676Z,102441.16
2019-01-05T15:01:33.518Z,102430.95
2019-01-05T15:03:11.186Z,102434.75
2019-01-05T15:04:35.398Z,102442.83
2019-01-05T15:06:00.912Z,102442.83
2019-01-05T15:07:29.703Z,102443.28
2019-01-05T15:08:54.052Z,102443.51
2019-01-05T15:10:22.725Z,102448.59
2019-01-05T15:11:48.280Z,102449.44
2019-01-05T15:13:14.890Z,102451.19
2019-01-05T15:14:39.736Z,102451.21
2019-01-05T15:16:19.499Z,102444.81
2019-01-05T15:17:58.787Z,102449.53
2019-01-05T15:19:23.593Z,102449.21
2019-01-05T15:20:48.045Z,102447.86
2019-01-05T15:22:19.936Z,102451.30
2019-01-05T15:23:48.183Z,102452.48
2019-01-05T15:25:13.696Z,102451.75
2019-01-05T15:26:37.357Z,102455.12
2019-01-05T15:28:11.577Z,102447.41
2019-01-05T15:29:37.085Z,102452.56
2019-01-05T15:31:08.474Z,102453.29
2019-01-05T15:32:33.850Z,102447.86
2019-01-05T15:33:59.092Z,102451.66
2019-01-05T15:35:23.325Z,102451.20
2019-01-05T15:36:48.170Z,102456.27
2019-01-05T15:38:12.313Z,102450.69
2019-01-05T15:39:46.958Z,102452.44
2019-01-05T15:41:12.964Z,102445.20
2019-01-05T15:42:41.482Z,102454.64
2019-01-05T15:44:06.187Z,102455.77
2019-01-05T15:45:28.184Z,102459.20
2019-01-05T15:47:06.477Z,102455.34
2019-01-05T15:48:47.308Z,102450.69
2019-01-05T15:50:13.478Z,102451.14
2019-01-05T15:51:51.587Z,102454.54
2019-01-05T15:53:09.288Z,102451.55
2019-01-05T15:54:27.347Z,102458.30
2019-01-05T15:55:55.815Z,102455.38
2019-01-05T15:57:20.386Z,102460.87
2019-01-05T15:58:45.219Z,102459.65
2019-01-05T16:00:11.078Z,102465.18
2019-01-05T16:01:55.500Z,102465.59
2019-01-05T16:03:21.077Z,102466.86
2019-01-05T16:04:46.517Z,102464.68
2019-01-05T16:06:10.962Z,102460.40
2019-01-05T16:07:35.366Z,102468.51
2019-01-05T16:09:13.904Z,102470.26
2019-01-05T16:10:43.498Z,102470.69
2019-01-05T16:12:08.348Z,102466.33
2019-01-05T16:13:32.935Z,102471.86
2019-01-05T16:14:58.521Z,102472.70
2019-01-05T16:16:22.709Z,102469.30
2019-01-05T16:17:48.597Z,102469.33
2019-01-05T16:19:13.031Z,102473.63
2019-01-05T16:20:41.526Z,102470.69
2019-01-05T16:22:05.934Z,102476.61
2019-01-05T16:23:41.001Z,102475.31
2019-01-05T16:25:05.196Z,102474.03
2019-01-05T16:26:30.913Z,102474.86
2019-01-05T16:28:02.316Z,102478.72
2019-01-05T16:29:34.268Z,102476.19
2019-01-05T16:30:58.787Z,102479.06
2019-01-05T16:32:24.338Z,102482.55
2019-01-05T16:33:48.632Z,102481.30
2019-01-05T16:35:25.864Z,102482.59
2019-01-05T16:36:50.065Z,102484.73
2019-01-05T16:38:15.743Z,102483.09
2019-01-05T16:39:41.864Z,102489.05
2019-01-05T16:41:19.973Z,102484.32
2019-01-05T16:42:45.834Z,102486.88
2019-01-05T16:44:23.998Z,102485.09
2019-01-05T16:45:48.455Z,102487.16
2019-01-05T16:47:14.024Z,102486.88
2019-01-05T16:48:38.372Z,102490.64
2019-01-05T16:50:03.113Z,102483.36
2019-01-05T16:51:41.471Z,102486.79
2019-01-05T16:53:06.290Z,102487.99
2019-01-05T16:54:34.618Z,102485.09
2019-01-05T16:56:19.070Z,102492.27
2019-01-05T16:58:01.655Z,102484.61
2019-01-05T16:59:27.464Z,102482.05
2019-01-05T17:01:04.928Z,102488.87
2019-01-05T17:02:29.193Z,102486.77
2019-01-05T17:03:53.636Z,102481.31
2019-01-05T17:05:18.316Z,102487.29
2019-01-05T17:06:43.149Z,102488.58
2019-01-05T17:08:23.964Z,102479.88
2019-01-05T17:09:48.703Z,102477.84
2019-01-05T17:11:14.209Z,102478.23
2019-01-05T17:12:38.959Z,102476.08
2019-01-05T17:14:19.842Z,102479.11
2019-01-05T17:15:45.579Z,102482.95
2019-01-05T17:17:11.630Z,102479.94
2019-01-05T17:18:32.734Z,102479.54
2019-01-05T17:20:10.778Z,102475.31
2019-01-05T17:21:39.290Z,102479.59
2019-01-05T17:23:10.816Z,102478.36
2019-01-05T17:24:42.979Z,102478.66
2019-01-05T17:26:07.748Z,102475.23
2019-01-05T17:27:27.505Z,102481.23
2019-01-05T17:28:52.604Z,102480.04
2019-01-05T17:30:27.221Z,102487.59
2019-01-05T17:31:48.923Z,102479.91
2019-01-05T17:33:26.598Z,102481.59
2019-01-05T17:35:04.447Z,102482.03
2019-01-05T17:36:48.186Z,102477.06
2019-01-05T17:38:14.406Z,102489.02
2019-01-05T17:39:52.401Z,102477.91
2019-01-05T17:41:18.588Z,102480.06
2019-01-05T17:42:43.498Z,102483.36
2019-01-05T17:44:14.143Z,102479.09
2019-01-05T17:45:44.423Z,102481.66
2019-01-05T17:47:05.618Z,102482.11
2019-01-05T17:48:32.808Z,102479.59
2019-01-05T17:50:13.903Z,102477.84
2019-01-05T17:51:47.311Z,102482.52
2019-01-05T17:53:09.618Z,102478.27
2019-01-05T17:54:37.910Z,102483.73
2019-01-05T17:56:03.410Z,102479.51
2019-01-05T17:57:25.854Z,102476.54
2019-01-05T17:58:42.522Z,102483.73
2019-01-05T18:00:08.083Z,102467.63
2019-01-05T18:01:36.354Z,102479.98
2019-01-05T18:03:19.962Z,102479.09
2019-01-05T18:04:50.941Z,102486.77
2019-01-05T18:06:15.225Z,102478.34
2019-01-05T18:07:33.773Z,102478.36
2019-01-05T18:08:58.357Z,102480.52
2019-01-05T18:10:36.763Z,102485.64
2019-01-05T18:12:08.544Z,102483.92
2019-01-05T18:13:41.971Z,102488.20
2019-01-05T18:15:25.868Z,102490.38
2019-01-05T18:17:03.655Z,102494.20
2019-01-05T18:18:27.544Z,102487.34
2019-01-05T18:20:02.170Z,102492.84
2019-01-05T18:21:28.123Z,102491.98
2019-01-05T18:22:54.018Z,102493.66
2019-01-05T18:24:22.652Z,102489.77
2019-01-05T18:25:48.142Z,102490.60
2019-01-05T18:27:14.140Z,102487.27
2019-01-05T18:28:57.986Z,102481.64
2019-01-05T18:30:26.398Z,102488.47
2019-01-05T18:31:52.758Z,102488.09
2019-01-05T18:33:17.042Z,102488.95
2019-01-05T18:34:58.430Z,102486.34
2019-01-05T18:36:24.349Z,102480.73
2019-01-05T18:37:49.135Z,102482.03
2019-01-05T18:39:16.375Z,102482.05
2019-01-05T18:40:45.137Z,102480.28
2019-01-05T18:42:10.453Z,102473.11
2019-01-05T18:43:36.001Z,102477.73
2019-01-05T18:45:19.829Z,102473.08
2019-01-05T18:47:02.850Z,102476.08
2019-01-05T18:48:30.305Z,102471.83
2019-01-05T18:49:55.859Z,102473.05
2019-01-05T18:51:24.286Z,102466.70
2019-01-05T18:53:05.162Z,102477.71
2019-01-05T18:54:43.029Z,102469.70
2019-01-05T18:56:14.947Z,102472.18
2019-01-05T18:57:46.273Z,102469.16
2019-01-05T18:59:21.619Z,102476.44
2019-01-05T19:00:53.624Z,102476.03
2019-01-05T19:02:34.158Z,102477.71
2019-01-05T19:03:59.360Z,102479.02
2019-01-05T19:05:25.174Z,102484.09
2019-01-05T19:06:56.778Z,102482.36
2019-01-05T19:08:37.962Z,102479.41
2019-01-05T19:10:15.868Z,102478.59
2019-01-05T19:11:41.216Z,102480.61
2019-01-05T19:13:05.877Z,102475.98
2019-01-05T19:14:32.038Z,102489.59
2019-01-05T19:16:10.559Z,102484.03
2019-01-05T19:17:39.264Z,102484.91
2019-01-05T19:19:05.066Z,102491.75
2019-01-05T19:20:37.074Z,102487.86
2019-01-05T19:22:01.277Z,102488.34
2019-01-05T19:23:20.416Z,102497.59
2019-01-05T19:24:44.978Z,102499.31
2019-01-05T19:26:06.310Z,102495.55
2019-01-05T19:27:43.943Z,102503.14
2019-01-05T19:29:09.780Z,102503.23
2019-01-05T19:30:34.467Z,102503.97
2019-01-05T19:31:53.861Z,102506.56
2019-01-05T19:33:28.310Z,102502.77
2019-01-05T19:35:03.092Z,102514.22
2019-01-05T19:36:27.654Z,102507.02
2019-01-05T19:37:56.267Z,102511.25
2019-01-05T19:39:21.791Z,102504.87
2019-01-05T19:40:53.496Z,102506.54
2019-01-05T19:42:19.255Z,102507.42
2019-01-05T19:43:43.703Z,102503.64
2019-01-05T19:45:08.960Z,102511.76
2019-01-05T19:46:33.366Z,102520.69
2019-01-05T19:47:57.668Z,102520.28
2019-01-05T19:49:38.588Z,102518.93
2019-01-05T19:51:16.189Z,102521.95
2019-01-05T19:52:45.185Z,102515.87
2019-01-05T19:54:09.468Z,102520.26
2019-01-05T19:55:34.243Z,102508.30
2019-01-05T19:57:02.908Z,102513.29
2019-01-05T19:58:27.505Z,102507.34
2019-01-05T19:59:58.480Z,102501.89
2019-01-05T20:01:23.196Z,102504.87
2019-01-05T20:02:46.000Z,102499.72
2019-01-05T20:04:10.575Z,102498.44
2019-01-05T20:05:35.244Z,102511.17
2019-01-05T20:07:07.004Z,102500.14
2019-01-05T20:08:31.492Z,102501.78
2019-01-05T20:09:57.187Z,102509.44
2019-01-05T20:11:42.148Z,102508.14
2019-01-05T20:13:07.795Z,102508.11
2019-01-05T20:14:32.818Z,102504.28
2019-01-05T20:16:09.151Z,102512.33
2019-01-05T20:17:35.666Z,102502.07
2019-01-05T20:19:11.829Z,102507.99
2019-01-05T20:20:40.273Z,102504.16
2019-01-05T20:22:39.976Z,102510.55
2019-01-05T20:23:51.301Z,102503.34
2019-01-05T20:25:36.181Z,102510.55
2019-01-05T20:27:04.560Z,102507.63
2019-01-05T20:28:38.393Z,102506.38
2019-01-05T20:30:13.881Z,102508.11
2019-01-05T20:31:44.994Z,102516.58
2019-01-05T20:33:10.510Z,102518.22
2019-01-05T20:34:36.482Z,102512.22
2019-01-05T20:36:06.026Z,102517.72
2019-01-05T20:37:32.334Z,102518.59
2019-01-05T20:38:57.009Z,102510.03
2019-01-05T20:40:17.997Z,102517.74
2019-01-05T20:41:43.080Z,102519.42
2019-01-05T20:43:20.932Z,102518.95
2019-01-05T20:44:55.495Z,102514.22
2019-01-05T20:46:20.990Z,102523.58
2019-01-05T20:47:56.732Z,102522.36
2019-01-05T20:49:21.329Z,102521.59
2019-01-05T20:50:47.994Z,102517.26
2019-01-05T20:52:13.683Z,102527.44
2019-01-05T20:53:49.823Z,102523.66
2019-01-05T20:55:21.695Z,102526.16
2019-01-05T20:56:46.577Z,102523.70
2019-01-05T20:58:11.301Z,102519.45
2019-01-05T20:59:42.660Z,102518.54
2019-01-05T21:01:20.303Z,102518.54
2019-01-05T21:02:51.579Z,102521.57
2019-01-05T21:04:20.352Z,102524.06
2019-01-05T21:05:44.817Z,102520.23
2019-01-05T21:07:09.344Z,102519.38
2019-01-05T21:08:40.850Z,102516.44
2019-01-05T21:10:15.693Z,102518.63
2019-01-05T21:11:39.993Z,102517.34
2019-01-05T21:13:15.093Z,102516.50
2019-01-05T21:14:39.489Z,102507.60
2019-01-05T21:16:05.427Z,102507.52
2019-01-05T21:17:29.493Z,102515.67
2019-01-05T21:19:13.500Z,102518.14
2019-01-05T21:20:42.140Z,102514.73
2019-01-05T21:22:13.819Z,102523.27
2019-01-05T21:23:37.996Z,102520.75
2019-01-05T21:25:06.842Z,102515.95
2019-01-05T21:26:32.045Z,102518.94
2019-01-05T21:27:57.894Z,102518.56
2019-01-05T21:29:22.565Z,102520.58
2019-01-05T21:30:57.142Z,102521.45
2019-01-05T21:32:21.766Z,102521.36
2019-01-05T21:33:47.354Z,102515.78
2019-01-05T21:35:09.207Z,102521.33
2019-01-05T21:36:38.109Z,102519.14
2019-01-05T21:38:07.099Z,102512.77
2019-01-05T21:39:42.002Z,102512.83
2019-01-05T21:41:06.731Z,102514.17
2019-01-05T21:42:31.228Z,102512.05
2019-01-05T21:44:12.315Z,102522.24